createdAt,value
2019-04-10T00:02:21.801Z,88.34
2019-04-10T00:05:27.742Z,87.86
2019-04-10T00:08:33.018Z,88.60
2019-04-10T00:11:38.246Z,90.22
2019-04-10T00:14:43.410Z,89.50
2019-04-10T00:17:49.288Z,89.30
2019-04-10T00:20:54.734Z,89.56
2019-04-10T00:24:00.112Z,88.23
2019-04-10T00:27:06.133Z,88.46
2019-04-10T00:30:11.556Z,88.11
2019-04-10T00:33:16.872Z,89.40
2019-04-10T00:36:22.192Z,90.39
2019-04-10T00:39:27.660Z,89.56
2019-04-10T00:42:34.855Z,89.66
2019-04-10T00:45:40.195Z,88.48
2019-04-10T00:48:45.582Z,88.90
2019-04-10T00:51:51.945Z,87.72
2019-04-10T00:54:59.170Z,88.72
2019-04-10T00:58:05.726Z,89.40
2019-04-10T01:01:11.812Z,89.78
2019-04-10T01:04:18.129Z,90.44
2019-04-10T01:07:35.236Z,90.78
2019-04-10T01:10:30.636Z,91.98
2019-04-10T01:13:36.883Z,91.07
2019-04-10T01:16:42.332Z,89.25
2019-04-10T01:19:48.086Z,90.64
2019-04-10T01:22:53.429Z,91.52
2019-04-10T01:25:58.899Z,91.54
2019-04-10T01:29:05.144Z,91.81
2019-04-10T01:32:10.627Z,91.87
2019-04-10T01:35:16.174Z,93.15
2019-04-10T01:38:21.809Z,91.53
2019-04-10T01:41:27.848Z,92.61
2019-04-10T01:44:33.275Z,93.80
2019-04-10T01:47:39.333Z,93.55
2019-04-10T01:50:46.476Z,93.68
2019-04-10T01:53:52.355Z,94.18
2019-04-10T01:56:57.810Z,94.96
2019-04-10T02:00:04.574Z,94.06
2019-04-10T02:03:10.207Z,94.77
2019-04-10T02:06:16.930Z,95.23
2019-04-10T02:09:23.355Z,94.09
2019-04-10T02:12:28.727Z,94.92
2019-04-10T02:15:34.294Z,94.76
2019-04-10T02:18:41.543Z,95.63
2019-04-10T02:21:47.731Z,95.47
2019-04-10T02:24:53.502Z,94.64
2019-04-10T02:27:59.186Z,94.95
2019-04-10T02:31:04.838Z,94.73
2019-04-10T02:34:10.229Z,95.57
2019-04-10T02:37:17.019Z,95.40
2019-04-10T02:40:23.567Z,95.15
2019-04-10T02:43:29.413Z,95.92
2019-04-10T02:46:34.742Z,96.81
2019-04-10T02:49:40.406Z,97.40
2019-04-10T02:52:46.581Z,98.06
2019-04-10T02:55:53.689Z,98.48
2019-04-10T02:58:59.150Z,99.36
2019-04-10T03:02:06.209Z,100.02
2019-04-10T03:05:13.429Z,100.04
2019-04-10T03:08:34.986Z,100.66
2019-04-10T03:11:26.476Z,100.00
2019-04-10T03:14:32.634Z,100.39
2019-04-10T03:17:38.102Z,100.37
2019-04-10T03:20:43.323Z,100.56
2019-04-10T03:23:49.379Z,101.05
2019-04-10T03:26:54.926Z,101.31
2019-04-10T03:30:00.242Z,101.44
2019-04-10T03:33:21.895Z,101.77
2019-04-10T03:36:27.373Z,101.52
2019-04-10T03:39:35.534Z,101.89
2019-04-10T03:42:39.702Z,102.02
2019-04-10T03:45:44.944Z,102.49
2019-04-10T03:48:51.438Z,102.77
2019-04-10T03:51:56.772Z,103.60
2019-04-10T03:55:03.061Z,103.55
2019-04-10T03:58:09.297Z,103.57
2019-04-10T04:01:14.587Z,104.57
2019-04-10T04:04:19.831Z,105.08
2019-04-10T04:07:27.000Z,105.03
2019-04-10T04:10:33.123Z,105.82
2019-04-10T04:13:38.335Z,105.53
2019-04-10T04:16:43.905Z,105.10
2019-04-10T04:19:49.157Z,105.32
2019-04-10T04:22:54.876Z,105.00
2019-04-10T04:26:00.999Z,105.97
2019-04-10T04:29:07.422Z,105.22
2019-04-10T04:32:13.422Z,105.44
2019-04-10T04:35:19.964Z,105.52
2019-04-10T04:38:25.633Z,105.26
2019-04-10T04:41:31.638Z,105.04
2019-04-10T04:44:37.656Z,105.29
2019-04-10T04:47:43.324Z,105.31
2019-04-10T04:50:48.669Z,104.23
2019-04-10T04:53:54.725Z,104.52
2019-04-10T04:57:00.213Z,104.88
2019-04-10T05:00:06.274Z,104.67
2019-04-10T05:03:12.879Z,104.15
2019-04-10T05:06:20.138Z,102.16
2019-04-10T05:09:31.060Z,99.33
2019-04-10T05:12:32.622Z,96.67
2019-04-10T05:15:37.841Z,93.67
2019-04-10T05:18:44.099Z,93.12
2019-04-10T05:21:49.828Z,89.80
2019-04-10T05:24:56.232Z,88.72
2019-04-10T05:28:01.724Z,88.05
2019-04-10T05:31:06.975Z,83.50
2019-04-10T05:34:12.263Z,79.02
2019-04-10T05:37:17.454Z,79.03
2019-04-10T05:40:23.814Z,82.17
2019-04-10T05:43:29.186Z,77.45
2019-04-10T05:46:34.627Z,80.96
2019-04-10T05:49:39.995Z,81.75
2019-04-10T05:52:45.229Z,81.49
2019-04-10T05:55:53.795Z,76.90
2019-04-10T05:59:00.610Z,76.62
2019-04-10T06:02:06.774Z,78.75
2019-04-10T06:05:14.326Z,81.81
2019-04-10T06:08:19.550Z,76.62
2019-04-10T06:11:24.811Z,75.71
2019-04-10T06:14:30.409Z,71.08
2019-04-10T06:17:35.906Z,72.98
2019-04-10T06:20:41.772Z,70.71
2019-04-10T06:23:47.668Z,68.07
2019-04-10T06:26:54.057Z,63.16
2019-04-10T06:29:59.474Z,64.70
2019-04-10T06:33:04.774Z,63.91
2019-04-10T06:36:11.200Z,69.47
2019-04-10T06:39:16.618Z,65.44
2019-04-10T06:42:22.539Z,66.37
2019-04-10T06:45:28.069Z,64.35
2019-04-10T06:48:34.222Z,66.77
2019-04-10T06:51:39.645Z,62.84
2019-04-10T06:54:44.924Z,71.29
2019-04-10T06:57:55.801Z,69.26
2019-04-10T07:00:58.069Z,76.20
2019-04-10T07:04:07.601Z,74.57
2019-04-10T07:07:13.959Z,76.78
2019-04-10T07:10:25.913Z,78.89
2019-04-10T07:13:26.053Z,73.93
2019-04-10T07:16:33.048Z,73.18
2019-04-10T07:19:41.408Z,77.13
2019-04-10T07:22:47.181Z,75.30
2019-04-10T07:25:54.874Z,77.00
2019-04-10T07:29:00.547Z,75.95
2019-04-10T07:32:09.616Z,77.52
2019-04-10T07:35:16.632Z,75.44
2019-04-10T07:38:21.365Z,75.30
2019-04-10T07:41:27.310Z,73.64
2019-04-10T07:44:34.995Z,74.84
2019-04-10T07:47:40.257Z,76.75
2019-04-10T07:50:47.043Z,77.21
2019-04-10T07:53:52.878Z,81.18
2019-04-10T07:56:58.124Z,77.43
2019-04-10T08:00:03.513Z,79.76
2019-04-10T08:03:10.467Z,82.73
2019-04-10T08:06:15.849Z,80.98
2019-04-10T08:09:22.104Z,81.42
2019-04-10T08:12:37.616Z,79.65
2019-04-10T08:15:34.285Z,85.64
2019-04-10T08:18:39.575Z,81.16
2019-04-10T08:21:44.893Z,83.05
2019-04-10T08:24:51.705Z,81.45
2019-04-10T08:27:57.140Z,83.09
2019-04-10T08:31:02.438Z,82.76
2019-04-10T08:34:08.818Z,82.98
2019-04-10T08:37:14.489Z,83.15
2019-04-10T08:40:21.141Z,87.16
2019-04-10T08:43:26.733Z,81.67
2019-04-10T08:46:33.650Z,80.31
2019-04-10T08:49:39.161Z,79.96
2019-04-10T08:52:44.625Z,79.32
2019-04-10T08:55:50.465Z,79.69
2019-04-10T08:58:57.180Z,78.25
2019-04-10T09:02:02.569Z,80.20
2019-04-10T09:05:09.862Z,79.61
2019-04-10T09:08:15.158Z,76.49
2019-04-10T09:11:26.539Z,78.43
2019-04-10T09:14:27.700Z,75.92
2019-04-10T09:17:33.459Z,76.10
2019-04-10T09:20:39.002Z,74.27
2019-04-10T09:23:50.232Z,76.90
2019-04-10T09:26:51.281Z,77.61
2019-04-10T09:29:56.538Z,77.37
2019-04-10T09:33:14.709Z,76.25
2019-04-10T09:36:09.070Z,77.99
2019-04-10T09:39:17.161Z,76.65
2019-04-10T09:42:23.596Z,76.45
2019-04-10T09:45:28.938Z,75.75
2019-04-10T09:48:34.244Z,75.90
2019-04-10T09:51:40.424Z,75.85
2019-04-10T09:54:46.722Z,74.92
2019-04-10T09:57:52.133Z,75.01
2019-04-10T10:01:01.586Z,72.47
2019-04-10T10:04:07.387Z,71.13
2019-04-10T10:07:12.639Z,70.73
2019-04-10T10:10:18.150Z,70.09
2019-04-10T10:13:23.583Z,70.55
2019-04-10T10:16:30.244Z,68.86
2019-04-10T10:19:36.346Z,67.71
2019-04-10T10:22:42.691Z,68.34
2019-04-10T10:25:49.420Z,64.57
2019-04-10T10:28:54.663Z,65.91
2019-04-10T10:32:00.402Z,65.60
2019-04-10T10:35:07.248Z,63.68
2019-04-10T10:38:14.809Z,64.32
2019-04-10T10:41:20.291Z,60.30
2019-04-10T10:44:25.914Z,65.71
2019-04-10T10:47:32.468Z,64.43
2019-04-10T10:50:39.533Z,59.80
2019-04-10T10:53:44.869Z,60.38
2019-04-10T10:56:50.924Z,60.65
2019-04-10T10:59:57.716Z,61.91
2019-04-10T11:03:03.024Z,58.67
2019-04-10T11:06:09.342Z,58.54
2019-04-10T11:09:15.910Z,56.63
2019-04-10T11:12:22.015Z,57.18
2019-04-10T11:15:27.843Z,57.35
2019-04-10T11:18:33.174Z,60.44
2019-04-10T11:21:52.354Z,54.55
2019-04-10T11:24:51.719Z,55.47
2019-04-10T11:27:58.363Z,50.14
2019-04-10T11:31:04.629Z,48.94
2019-04-10T11:34:11.186Z,51.51
2019-04-10T11:37:26.973Z,50.57
2019-04-10T11:40:26.728Z,49.83
2019-04-10T11:43:33.448Z,52.04
2019-04-10T11:46:41.462Z,51.31
2019-04-10T11:49:47.139Z,52.52
2019-04-10T11:52:53.506Z,49.73
2019-04-10T11:56:03.245Z,52.05
2019-04-10T11:59:09.194Z,50.48
2019-04-10T12:02:14.531Z,48.86
2019-04-10T12:05:21.921Z,48.93
2019-04-10T12:11:35.162Z,47.07
2019-04-10T12:14:41.677Z,53.00
2019-04-10T12:17:47.137Z,51.14
2019-04-10T12:20:53.515Z,49.75
2019-04-10T12:23:58.989Z,51.50
2019-04-10T12:27:04.539Z,53.27
2019-04-10T12:30:11.121Z,49.31
2019-04-10T12:33:17.109Z,50.32
2019-04-10T12:36:24.486Z,50.71
2019-04-10T12:39:30.154Z,48.55
2019-04-10T12:42:36.452Z,48.36
2019-04-10T12:45:41.845Z,48.37
2019-04-10T12:48:47.299Z,47.11
2019-04-10T12:51:54.103Z,49.35
2019-04-10T12:54:59.572Z,50.47
2019-04-10T12:58:11.077Z,52.06
2019-04-10T13:01:12.819Z,49.74
2019-04-10T13:04:18.099Z,52.32
2019-04-10T13:07:23.419Z,48.94
2019-04-10T13:10:29.515Z,48.67
2019-04-10T13:13:35.894Z,47.78
2019-04-10T13:16:41.773Z,50.58
2019-04-10T13:19:49.194Z,46.70
2019-04-10T13:22:54.652Z,48.58
2019-04-10T13:26:01.798Z,49.71
2019-04-10T13:29:07.748Z,51.41
2019-04-10T13:32:13.894Z,50.21
2019-04-10T13:35:19.183Z,50.87
2019-04-10T13:38:30.158Z,48.80
2019-04-10T13:41:32.352Z,49.17
2019-04-10T13:44:38.397Z,48.63
2019-04-10T13:47:44.895Z,49.60
2019-04-10T13:50:50.804Z,50.24
2019-04-10T13:53:56.576Z,49.64
2019-04-10T13:57:02.037Z,48.03
2019-04-10T14:00:12.058Z,48.79
2019-04-10T14:03:19.180Z,48.90
2019-04-10T14:06:25.423Z,51.53
2019-04-10T14:09:40.576Z,51.11
2019-04-10T14:12:38.962Z,49.23
2019-04-10T14:15:44.350Z,48.04
2019-04-10T14:18:53.000Z,46.68
2019-04-10T14:21:59.619Z,45.96
2019-04-10T14:25:07.306Z,45.52
2019-04-10T14:28:13.097Z,45.16
2019-04-10T14:31:24.659Z,45.40
2019-04-10T14:34:30.967Z,45.02
2019-04-10T14:37:37.941Z,45.58
2019-04-10T14:40:43.875Z,45.91
2019-04-10T14:43:50.082Z,45.77
2019-04-10T14:46:55.592Z,45.28
2019-04-10T14:50:01.963Z,44.14
2019-04-10T14:53:07.653Z,46.23
2019-04-10T14:56:13.699Z,44.07
2019-04-10T14:59:19.826Z,43.44
2019-04-10T15:02:26.369Z,42.64
2019-04-10T15:05:32.608Z,42.68
2019-04-10T15:08:39.640Z,44.07
2019-04-10T15:11:46.844Z,44.47
2019-04-10T15:14:54.345Z,43.21
2019-04-10T15:17:59.622Z,42.53
2019-04-10T15:21:04.901Z,41.60
2019-04-10T15:24:11.078Z,42.32
2019-04-10T15:27:17.323Z,43.62
2019-04-10T15:30:23.555Z,42.99
2019-04-10T15:33:28.997Z,39.70
2019-04-10T15:36:34.272Z,39.78
2019-04-10T15:39:41.471Z,39.31
2019-04-10T15:42:46.574Z,40.60
2019-04-10T15:45:52.551Z,38.36
2019-04-10T15:48:58.468Z,39.42
2019-04-10T15:52:05.858Z,40.63
2019-04-10T15:55:13.352Z,38.76
2019-04-10T15:58:19.366Z,40.04
2019-04-10T16:01:27.829Z,40.95
2019-04-10T16:04:31.783Z,40.34
2019-04-10T16:07:38.282Z,41.63
2019-04-10T16:11:14.953Z,39.18
2019-04-10T16:14:24.529Z,39.30
2019-04-10T16:17:39.697Z,38.66
2019-04-10T16:20:47.305Z,39.42
2019-04-10T16:23:58.546Z,38.31
2019-04-10T16:27:03.823Z,40.00
2019-04-10T16:30:15.938Z,39.94
2019-04-10T16:33:21.630Z,39.28
2019-04-10T16:36:27.911Z,40.42
2019-04-10T16:39:34.384Z,39.38
2019-04-10T16:42:40.361Z,40.80
2019-04-10T16:45:46.943Z,39.66
2019-04-10T16:48:52.558Z,39.99
2019-04-10T16:51:58.734Z,40.10
2019-04-10T16:55:04.279Z,39.31
2019-04-10T16:58:11.700Z,41.30
2019-04-10T17:01:18.211Z,39.41
2019-04-10T17:04:23.559Z,40.78
2019-04-10T17:07:28.968Z,40.97
2019-04-10T17:10:36.559Z,40.04
2019-04-10T17:13:42.553Z,41.80
2019-04-10T17:16:50.304Z,41.65
2019-04-10T17:19:57.610Z,43.72
2019-04-10T17:23:02.684Z,42.44
2019-04-10T17:26:08.917Z,41.57
2019-04-10T17:29:14.651Z,42.23
2019-04-10T17:32:21.334Z,41.50
2019-04-10T17:35:27.582Z,42.17
2019-04-10T17:38:34.744Z,43.89
2019-04-10T17:41:40.035Z,43.19
2019-04-10T17:44:45.657Z,43.72
2019-04-10T17:47:51.466Z,44.23
2019-04-10T17:50:57.858Z,44.55
2019-04-10T17:54:04.696Z,45.70
2019-04-10T17:57:10.728Z,49.17
2019-04-10T18:00:25.471Z,50.54
2019-04-10T18:03:44.842Z,51.97
2019-04-10T18:06:37.904Z,52.94
2019-04-10T18:09:43.357Z,53.27
2019-04-10T18:12:49.691Z,53.93
2019-04-10T18:15:57.028Z,54.88
2019-04-10T18:19:02.291Z,54.83
2019-04-10T18:22:07.680Z,55.41
2019-04-10T18:25:13.856Z,57.06
2019-04-10T18:28:19.418Z,59.31
2019-04-10T18:31:26.477Z,60.85
2019-04-10T18:34:31.732Z,62.54
2019-04-10T18:37:39.225Z,61.60
2019-04-10T18:40:55.024Z,62.89
2019-04-10T18:43:51.521Z,64.05
2019-04-10T18:46:56.773Z,63.08
2019-04-10T18:50:02.895Z,63.13
2019-04-10T18:53:08.765Z,62.20
2019-04-10T18:56:16.684Z,63.25
2019-04-10T18:59:28.973Z,64.26
2019-04-10T19:03:03.342Z,64.50
2019-04-10T19:06:12.219Z,63.55
2019-04-10T19:09:24.591Z,65.02
2019-04-10T19:12:26.463Z,66.20
2019-04-10T19:15:32.655Z,66.70
2019-04-10T19:18:38.116Z,64.59
2019-04-10T19:21:43.897Z,65.00
2019-04-10T19:24:54.478Z,64.78
2019-04-10T19:28:00.418Z,65.44
2019-04-10T19:31:16.595Z,65.79
2019-04-10T19:34:17.563Z,67.21
2019-04-10T19:37:22.979Z,68.00
2019-04-10T19:40:29.843Z,68.68
2019-04-10T19:43:35.253Z,67.06
2019-04-10T19:46:41.803Z,68.09
2019-04-10T19:49:47.188Z,67.61
2019-04-10T19:52:52.859Z,68.28
2019-04-10T19:55:58.155Z,68.07
2019-04-10T19:59:03.458Z,68.89
2019-04-10T20:02:08.825Z,70.18
2019-04-10T20:05:14.993Z,70.76
2019-04-10T20:08:20.395Z,70.98
2019-04-10T20:11:37.572Z,71.04
2019-04-10T20:14:34.728Z,71.48
2019-04-10T20:17:42.202Z,72.25
2019-04-10T20:20:47.756Z,73.50
2019-04-10T20:23:54.414Z,73.72
2019-04-10T20:26:59.770Z,74.92
2019-04-10T20:30:05.771Z,76.87
2019-04-10T20:33:11.479Z,77.31
2019-04-10T20:36:17.212Z,75.74
2019-04-10T20:39:23.273Z,76.39
2019-04-10T20:42:29.915Z,75.62
2019-04-10T20:45:37.925Z,73.53
2019-04-10T20:48:44.564Z,72.95
2019-04-10T20:51:50.522Z,72.67
2019-04-10T20:54:55.921Z,72.33
2019-04-10T20:58:02.606Z,72.73
2019-04-10T21:01:08.373Z,74.70
2019-04-10T21:04:15.093Z,75.37
2019-04-10T21:07:21.351Z,76.65
2019-04-10T21:10:26.726Z,77.19
2019-04-10T21:13:32.070Z,77.81
2019-04-10T21:16:37.858Z,77.67
2019-04-10T21:19:43.492Z,79.16
2019-04-10T21:22:49.333Z,78.55
2019-04-10T21:25:55.369Z,78.82
2019-04-10T21:29:02.817Z,79.26
2019-04-10T21:32:21.657Z,77.44
2019-04-10T21:35:30.890Z,77.13
2019-04-10T21:38:36.520Z,79.57
2019-04-10T21:41:41.910Z,79.70
2019-04-10T21:44:47.166Z,80.70
2019-04-10T21:47:54.377Z,79.38
2019-04-10T21:51:00.601Z,80.42
2019-04-10T21:54:06.407Z,81.31
2019-04-10T21:57:11.802Z,81.85
2019-04-10T22:00:20.387Z,82.05
2019-04-10T22:03:35.756Z,80.83
2019-04-10T22:07:01.343Z,81.68
2019-04-10T22:10:23.876Z,83.13
2019-04-10T22:13:30.198Z,83.47
2019-04-10T22:16:35.814Z,81.67
2019-04-10T22:19:41.066Z,83.27
2019-04-10T22:22:47.067Z,83.98
2019-04-10T22:25:54.262Z,83.77
2019-04-10T22:28:59.719Z,83.47
2019-04-10T22:32:06.294Z,84.68
2019-04-10T22:35:11.980Z,85.04
2019-04-10T22:38:17.462Z,83.88
2019-04-10T22:41:28.526Z,83.29
2019-04-10T22:44:36.656Z,84.25
2019-04-10T22:47:39.415Z,86.08
2019-04-10T22:50:45.021Z,87.39
2019-04-10T22:53:50.586Z,88.46
2019-04-10T22:56:56.544Z,87.29
2019-04-10T23:00:05.416Z,88.05
2019-04-10T23:03:13.321Z,89.62
2019-04-10T23:06:18.867Z,90.12
2019-04-10T23:09:24.350Z,90.87
2019-04-10T23:12:30.043Z,92.26
2019-04-10T23:15:35.704Z,92.45
2019-04-10T23:18:41.397Z,92.38
2019-04-10T23:21:47.031Z,93.16
2019-04-10T23:24:54.096Z,94.37
2019-04-10T23:28:01.122Z,93.17
2019-04-10T23:31:07.587Z,93.12
2019-04-10T23:34:13.105Z,91.89
2019-04-10T23:37:18.491Z,92.28
2019-04-10T23:40:25.008Z,92.77
2019-04-10T23:43:31.480Z,93.06
2019-04-10T23:46:36.869Z,94.45
2019-04-10T23:49:42.239Z,94.46
2019-04-10T23:52:47.871Z,94.83
2019-04-10T23:55:54.413Z,96.22
2019-04-10T23:58:59.813Z,97.18
